createdAt,value
2018-04-16T00:00:30.675Z,79.69
2018-04-16T00:01:29.828Z,79.02
2018-04-16T00:03:24.281Z,78.55
2018-04-16T00:04:23.497Z,77.87
2018-04-16T00:06:17.073Z,77.11
2018-04-16T00:07:17.044Z,77.17
2018-04-16T00:09:10.669Z,79.02
2018-04-16T00:10:10.636Z,78.51
2018-04-16T00:12:04.272Z,77.74
2018-04-16T00:13:04.239Z,79.36
2018-04-16T00:14:57.974Z,80.70
2018-04-16T00:15:57.959Z,76.50
2018-04-16T00:17:51.579Z,76.50
2018-04-16T00:18:51.551Z,77.17
2018-04-16T00:20:45.980Z,77.08
2018-04-16T00:21:45.195Z,77.94
2018-04-16T00:23:38.718Z,75.74
2018-04-16T00:24:38.683Z,76.21
2018-04-16T00:26:32.358Z,78.70
2018-04-16T00:27:32.314Z,77.94
2018-04-16T00:29:25.831Z,77.74
2018-04-16T00:30:25.817Z,78.03
2018-04-16T00:32:20.248Z,75.16
2018-04-16T00:33:19.380Z,74.21
2018-04-16T00:35:13.804Z,74.02
2018-04-16T00:36:13.015Z,74.98
2018-04-16T00:38:06.657Z,76.40
2018-04-16T00:39:06.626Z,74.88
2018-04-16T00:41:00.242Z,76.50
2018-04-16T00:42:00.211Z,76.79
2018-04-16T00:43:53.788Z,77.17
2018-04-16T00:44:53.777Z,78.31
2018-04-16T00:46:48.214Z,76.12
2018-04-16T00:47:47.437Z,76.69
2018-04-16T00:49:41.138Z,74.49
2018-04-16T00:50:41.098Z,74.78
2018-04-16T00:52:35.535Z,77.94
2018-04-16T00:53:34.707Z,77.51
2018-04-16T00:55:28.364Z,75.35
2018-04-16T00:56:28.339Z,75.54
2018-04-16T00:58:21.877Z,76.98
2018-04-16T00:59:21.827Z,77.70
2018-04-16T01:01:16.265Z,77.70
2018-04-16T01:02:15.496Z,78.09
2018-04-16T01:04:09.149Z,77.32
2018-04-16T01:05:09.125Z,76.75
2018-04-16T01:07:03.548Z,77.42
2018-04-16T01:08:02.634Z,76.56
2018-04-16T01:09:56.326Z,74.93
2018-04-16T01:10:56.277Z,76.75
2018-04-16T01:12:49.956Z,77.70
2018-04-16T01:13:49.898Z,77.61
2018-04-16T01:14:49.897Z,76.18
2018-04-16T01:15:49.888Z,76.75
2018-04-16T01:16:49.880Z,75.51
2018-04-16T01:17:49.877Z,76.65
2018-04-16T01:18:49.877Z,76.94
2018-04-16T01:19:49.860Z,77.99
2018-04-16T01:20:49.854Z,77.23
2018-04-16T01:21:49.847Z,77.80
2018-04-16T01:22:49.842Z,77.23
2018-04-16T01:23:49.835Z,77.80
2018-04-16T01:24:49.826Z,78.94
2018-04-16T01:25:49.828Z,77.32
2018-04-16T01:26:49.814Z,79.52
2018-04-16T01:27:49.810Z,77.99
2018-04-16T01:28:49.802Z,78.66
2018-04-16T01:29:49.795Z,77.61
2018-04-16T01:30:49.788Z,76.56
2018-04-16T01:31:49.781Z,78.09
2018-04-16T01:32:49.777Z,76.65
2018-04-16T01:33:49.767Z,78.47
2018-04-16T01:34:49.763Z,76.56
2018-04-16T01:35:49.761Z,77.42
2018-04-16T01:36:49.749Z,77.42
2018-04-16T01:37:49.745Z,77.42
2018-04-16T01:38:49.733Z,77.80
2018-04-16T01:39:49.728Z,75.70
2018-04-16T01:40:49.722Z,76.18
2018-04-16T01:41:49.715Z,78.66
2018-04-16T01:42:49.710Z,77.32
2018-04-16T01:43:49.702Z,76.18
2018-04-16T01:44:49.691Z,77.99
2018-04-16T01:45:49.686Z,77.99
2018-04-16T01:46:49.681Z,78.09
2018-04-16T01:47:49.677Z,77.32
2018-04-16T01:48:49.668Z,77.23
2018-04-16T01:49:49.662Z,76.75
2018-04-16T01:50:49.655Z,76.46
2018-04-16T01:51:49.646Z,78.37
2018-04-16T01:52:49.637Z,77.99
2018-04-16T01:53:49.640Z,77.51
2018-04-16T01:54:49.628Z,77.13
2018-04-16T01:55:49.618Z,76.75
2018-04-16T01:56:49.612Z,79.61
2018-04-16T01:57:49.606Z,77.51
2018-04-16T01:58:49.597Z,76.84
2018-04-16T01:59:49.591Z,75.89
2018-04-16T02:00:49.586Z,76.75
2018-04-16T02:01:49.579Z,77.80
2018-04-16T02:02:49.570Z,77.32
2018-04-16T02:03:49.569Z,77.89
2018-04-16T02:04:49.555Z,76.94
2018-04-16T02:05:49.566Z,76.94
2018-04-16T02:06:49.549Z,76.94
2018-04-16T02:07:49.536Z,77.47
2018-04-16T02:08:49.530Z,76.71
2018-04-16T02:09:49.523Z,76.23
2018-04-16T02:10:49.515Z,76.23
2018-04-16T02:11:49.504Z,76.33
2018-04-16T02:12:49.503Z,76.56
2018-04-16T02:13:49.493Z,77.09
2018-04-16T02:14:49.485Z,78.72
2018-04-16T02:15:49.483Z,77.23
2018-04-16T02:16:49.471Z,77.09
2018-04-16T02:17:49.466Z,76.71
2018-04-16T02:18:49.460Z,76.71
2018-04-16T02:19:49.465Z,77.47
2018-04-16T02:20:49.441Z,76.62
2018-04-16T02:21:49.439Z,77.67
2018-04-16T02:22:49.431Z,75.28
2018-04-16T02:23:49.420Z,75.57
2018-04-16T02:24:49.423Z,76.71
2018-04-16T02:25:49.413Z,77.67
2018-04-16T02:26:49.399Z,76.04
2018-04-16T02:27:49.394Z,76.81
2018-04-16T02:28:49.387Z,76.23
2018-04-16T02:29:49.385Z,77.09
2018-04-16T02:30:49.376Z,76.52
2018-04-16T02:31:49.366Z,76.81
2018-04-16T02:32:49.359Z,77.57
2018-04-16T02:33:49.349Z,78.52
2018-04-16T02:34:49.346Z,79.38
2018-04-16T02:35:49.347Z,77.00
2018-04-16T02:36:49.334Z,75.76
2018-04-16T02:37:49.331Z,77.95
2018-04-16T02:38:49.322Z,76.71
2018-04-16T02:39:49.315Z,76.04
2018-04-16T02:40:49.312Z,77.28
2018-04-16T02:41:49.296Z,77.47
2018-04-16T02:42:49.292Z,76.42
2018-04-16T02:43:49.286Z,76.62
2018-04-16T02:44:49.285Z,77.00
2018-04-16T02:45:49.270Z,75.85
2018-04-16T02:46:49.259Z,74.23
2018-04-16T02:47:49.253Z,74.99
2018-04-16T02:48:49.246Z,75.47
2018-04-16T02:49:49.243Z,77.38
2018-04-16T02:50:49.243Z,76.52
2018-04-16T02:51:49.230Z,77.19
2018-04-16T02:52:49.223Z,77.28
2018-04-16T02:53:49.216Z,77.19
2018-04-16T02:54:49.223Z,78.05
2018-04-16T02:55:49.200Z,76.33
2018-04-16T02:56:49.192Z,78.05
2018-04-16T02:57:49.187Z,76.14
2018-04-16T02:58:49.184Z,75.95
2018-04-16T02:59:49.175Z,75.95
2018-04-16T03:00:49.163Z,76.81
2018-04-16T03:01:49.153Z,75.43
2018-04-16T03:02:49.147Z,76.57
2018-04-16T03:03:49.140Z,76.33
2018-04-16T03:04:49.139Z,77.53
2018-04-16T03:05:49.129Z,76.81
2018-04-16T03:06:49.116Z,76.39
2018-04-16T03:07:49.111Z,76.96
2018-04-16T03:08:49.111Z,77.34
2018-04-16T03:09:49.101Z,76.62
2018-04-16T03:10:49.095Z,75.43
2018-04-16T03:11:49.087Z,75.53
2018-04-16T03:12:49.080Z,76.01
2018-04-16T03:13:49.071Z,72.67
2018-04-16T03:14:49.065Z,74.77
2018-04-16T03:15:49.056Z,76.57
2018-04-16T03:16:49.058Z,75.34
2018-04-16T03:17:49.043Z,74.86
2018-04-16T03:18:49.038Z,75.62
2018-04-16T03:19:49.029Z,74.57
2018-04-16T03:20:49.017Z,75.53
2018-04-16T03:21:49.016Z,73.24
2018-04-16T03:22:49.003Z,74.86
2018-04-16T03:23:49.003Z,74.48
2018-04-16T03:24:48.992Z,75.62
2018-04-16T03:25:48.987Z,75.53
2018-04-16T03:26:48.976Z,75.53
2018-04-16T03:27:48.973Z,76.57
2018-04-16T03:28:48.964Z,76.10
2018-04-16T03:29:48.957Z,72.96
2018-04-16T03:30:48.955Z,73.91
2018-04-16T03:31:48.945Z,74.38
2018-04-16T03:32:48.937Z,73.62
2018-04-16T03:33:48.928Z,74.10
2018-04-16T03:34:48.921Z,75.34
2018-04-16T03:35:48.914Z,74.19
2018-04-16T03:36:48.910Z,74.01
2018-04-16T03:37:48.896Z,73.43
2018-04-16T03:38:48.893Z,73.43
2018-04-16T03:39:48.884Z,74.67
2018-04-16T03:40:48.877Z,75.05
2018-04-16T03:41:48.866Z,74.96
2018-04-16T03:42:48.860Z,74.01
2018-04-16T03:43:48.858Z,75.05
2018-04-16T03:44:48.849Z,74.96
2018-04-16T03:45:48.842Z,74.19
2018-04-16T03:46:48.831Z,74.96
2018-04-16T03:47:48.829Z,74.96
2018-04-16T03:48:48.819Z,73.62
2018-04-16T03:49:48.807Z,74.29
2018-04-16T03:50:48.798Z,73.52
2018-04-16T03:51:48.804Z,74.86
2018-04-16T03:52:48.787Z,74.01
2018-04-16T03:53:48.781Z,74.38
2018-04-16T03:54:48.776Z,74.10
2018-04-16T03:55:48.763Z,75.24
2018-04-16T03:56:48.758Z,75.01
2018-04-16T03:57:48.748Z,75.11
2018-04-16T03:58:48.762Z,74.06
2018-04-16T03:59:48.735Z,73.58
2018-04-16T04:00:48.729Z,73.11
2018-04-16T04:01:48.718Z,73.39
2018-04-16T04:02:48.712Z,72.92
2018-04-16T04:03:48.708Z,72.82
2018-04-16T04:04:48.694Z,73.39
2018-04-16T04:05:48.694Z,74.25
2018-04-16T04:06:48.685Z,73.30
2018-04-16T04:07:48.677Z,74.06
2018-04-16T04:08:48.667Z,74.25
2018-04-16T04:09:48.657Z,73.30
2018-04-16T04:10:48.651Z,72.44
2018-04-16T04:11:48.644Z,73.49
2018-04-16T04:12:48.645Z,74.16
2018-04-16T04:13:48.632Z,73.87
2018-04-16T04:14:48.624Z,73.58
2018-04-16T04:15:48.619Z,72.53
2018-04-16T04:16:48.603Z,72.34
2018-04-16T04:17:48.598Z,73.11
2018-04-16T04:18:48.590Z,72.25
2018-04-16T04:19:48.586Z,75.20
2018-04-16T04:20:48.576Z,72.92
2018-04-16T04:21:48.570Z,71.96
2018-04-16T04:22:48.562Z,72.72
2018-04-16T04:23:48.580Z,72.16
2018-04-16T04:24:48.549Z,72.63
2018-04-16T04:25:48.540Z,74.25
2018-04-16T04:26:48.533Z,73.21
2018-04-16T04:27:48.527Z,73.01
2018-04-16T04:28:48.517Z,72.44
2018-04-16T04:29:48.505Z,73.21
2018-04-16T04:30:48.500Z,72.53
2018-04-16T04:31:48.495Z,71.87
2018-04-16T04:32:48.488Z,73.39
2018-04-16T04:33:48.480Z,72.53
2018-04-16T04:34:48.475Z,71.77
2018-04-16T04:35:48.465Z,73.01
2018-04-16T04:36:48.456Z,73.58
2018-04-16T04:37:48.450Z,73.11
2018-04-16T04:38:48.442Z,72.72
2018-04-16T04:39:48.436Z,72.34
2018-04-16T04:40:48.427Z,73.01
2018-04-16T04:41:48.420Z,73.30
2018-04-16T04:42:48.416Z,72.92
2018-04-16T04:43:48.405Z,72.82
2018-04-16T04:44:48.402Z,73.68
2018-04-16T04:45:48.387Z,73.96
2018-04-16T04:46:48.381Z,73.77
2018-04-16T04:47:48.374Z,72.82
2018-04-16T04:48:48.367Z,71.77
2018-04-16T04:49:48.395Z,72.53
2018-04-16T04:50:48.348Z,70.44
2018-04-16T04:51:48.340Z,72.16
2018-04-16T04:52:48.337Z,71.58
2018-04-16T04:53:48.328Z,72.16
2018-04-16T04:54:48.320Z,73.49
2018-04-16T04:55:48.318Z,72.53
2018-04-16T04:56:48.302Z,72.92
2018-04-16T04:57:48.293Z,73.01
2018-04-16T04:58:48.292Z,71.68
2018-04-16T04:59:48.292Z,72.92
2018-04-16T05:00:48.279Z,72.44
2018-04-16T05:01:48.268Z,72.53
2018-04-16T05:02:48.260Z,72.63
2018-04-16T05:03:48.252Z,73.21
2018-04-16T05:04:48.242Z,72.34
2018-04-16T05:05:48.232Z,71.77
2018-04-16T05:06:48.226Z,72.72
2018-04-16T05:07:48.225Z,72.82
2018-04-16T05:08:48.212Z,72.92
2018-04-16T05:09:48.208Z,73.01
2018-04-16T05:10:48.198Z,72.92
2018-04-16T05:11:48.186Z,73.01
2018-04-16T05:12:48.179Z,71.58
2018-04-16T05:13:48.171Z,72.72
2018-04-16T05:14:48.175Z,71.87
2018-04-16T05:15:48.161Z,72.34
2018-04-16T05:16:48.149Z,72.44
2018-04-16T05:17:48.145Z,73.01
2018-04-16T05:18:48.135Z,73.11
2018-04-16T05:19:48.125Z,72.53
2018-04-16T05:20:48.127Z,72.34
2018-04-16T05:21:48.115Z,72.25
2018-04-16T05:22:48.112Z,72.34
2018-04-16T05:23:48.102Z,72.25
2018-04-16T05:24:48.089Z,71.77
2018-04-16T05:25:48.079Z,71.39
2018-04-16T05:26:48.072Z,72.25
2018-04-16T05:27:48.068Z,72.63
2018-04-16T05:28:48.060Z,73.39
2018-04-16T05:29:48.057Z,72.82
2018-04-16T05:30:48.046Z,72.16
2018-04-16T05:31:48.054Z,71.96
2018-04-16T05:32:48.027Z,72.63
2018-04-16T05:33:48.028Z,72.92
2018-04-16T05:34:48.015Z,74.54
2018-04-16T05:35:48.009Z,74.73
2018-04-16T05:36:48.003Z,74.38
2018-04-16T05:37:47.991Z,74.67
2018-04-16T05:38:47.981Z,76.77
2018-04-16T05:39:47.975Z,75.91
2018-04-16T05:40:47.966Z,73.72
2018-04-16T05:41:47.965Z,75.34
2018-04-16T05:42:47.962Z,76.20
2018-04-16T05:43:47.951Z,75.91
2018-04-16T05:44:47.944Z,76.29
2018-04-16T05:45:47.935Z,75.34
2018-04-16T05:46:47.932Z,74.96
2018-04-16T05:47:47.925Z,76.10
2018-04-16T05:48:47.911Z,77.53
2018-04-16T05:49:47.915Z,77.53
2018-04-16T05:50:47.904Z,76.86
2018-04-16T05:51:47.893Z,76.86
2018-04-16T05:52:47.885Z,78.01
2018-04-16T05:53:47.880Z,76.39
2018-04-16T05:54:47.874Z,77.91
2018-04-16T05:55:47.868Z,77.62
2018-04-16T05:56:47.862Z,77.72
2018-04-16T05:57:47.855Z,75.24
2018-04-16T05:58:47.848Z,76.81
2018-04-16T05:59:47.842Z,76.81
2018-04-16T06:00:47.830Z,77.25
2018-04-16T06:01:47.827Z,77.76
2018-04-16T06:02:47.817Z,78.14
2018-04-16T06:03:47.816Z,77.19
2018-04-16T06:04:47.805Z,77.95
2018-04-16T06:05:47.801Z,77.95
2018-04-16T06:06:47.791Z,77.67
2018-04-16T06:07:47.792Z,75.85
2018-04-16T06:08:47.778Z,78.23
2018-04-16T06:09:47.776Z,78.05
2018-04-16T06:10:47.766Z,78.05
2018-04-16T06:11:47.770Z,76.90
2018-04-16T06:12:47.759Z,77.76
2018-04-16T06:13:47.744Z,77.00
2018-04-16T06:14:47.743Z,78.05
2018-04-16T06:15:47.737Z,79.00
2018-04-16T06:16:47.730Z,77.00
2018-04-16T06:17:47.723Z,77.28
2018-04-16T06:18:47.718Z,77.67
2018-04-16T06:19:47.711Z,77.86
2018-04-16T06:20:47.705Z,78.56
2018-04-16T06:21:47.697Z,79.43
2018-04-16T06:22:47.692Z,77.89
2018-04-16T06:23:47.686Z,79.43
2018-04-16T06:24:47.679Z,79.14
2018-04-16T06:25:47.669Z,78.94
2018-04-16T06:26:47.667Z,81.43
2018-04-16T06:27:47.658Z,81.56
2018-04-16T06:28:47.660Z,80.41
2018-04-16T06:29:47.651Z,81.76
2018-04-16T06:30:47.644Z,80.90
2018-04-16T06:31:47.646Z,80.99
2018-04-16T06:32:47.630Z,81.37
2018-04-16T06:33:47.626Z,82.14
2018-04-16T06:34:47.622Z,80.90
2018-04-16T06:35:47.617Z,81.47
2018-04-16T06:36:47.616Z,80.51
2018-04-16T06:37:47.605Z,80.22
2018-04-16T06:38:47.599Z,80.61
2018-04-16T06:39:47.593Z,80.32
2018-04-16T06:40:47.588Z,80.99
2018-04-16T06:41:47.581Z,81.27
2018-04-16T06:42:47.574Z,81.09
2018-04-16T06:43:47.572Z,81.18
2018-04-16T06:44:47.566Z,78.51
2018-04-16T06:45:47.564Z,80.22
2018-04-16T06:46:47.560Z,79.56
2018-04-16T06:47:47.549Z,81.09
2018-04-16T06:48:47.542Z,80.51
2018-04-16T06:49:47.537Z,79.12
2018-04-16T06:50:47.541Z,81.22
2018-04-16T06:51:47.529Z,81.22
2018-04-16T06:52:47.522Z,80.93
2018-04-16T06:53:47.517Z,82.37
2018-04-16T06:54:47.512Z,81.13
2018-04-16T06:55:47.519Z,80.93
2018-04-16T06:56:47.501Z,80.93
2018-04-16T06:57:47.499Z,82.75
2018-04-16T06:58:47.495Z,83.13
2018-04-16T06:59:47.511Z,83.75
2018-04-16T07:00:47.498Z,81.74
2018-04-16T07:01:47.479Z,84.99
2018-04-16T07:02:47.480Z,83.84
2018-04-16T07:03:47.468Z,81.55
2018-04-16T07:04:47.479Z,84.03
2018-04-16T07:05:47.468Z,84.42
2018-04-16T07:06:47.456Z,82.51
2018-04-16T07:07:47.510Z,85.51
2018-04-16T07:08:47.533Z,84.46
2018-04-16T07:09:47.439Z,89.15
2018-04-16T07:10:47.437Z,85.32
2018-04-16T07:11:47.436Z,84.84
2018-04-16T07:12:47.428Z,88.29
2018-04-16T07:13:47.439Z,85.51
2018-04-16T07:14:47.425Z,86.61
2018-04-16T07:15:47.450Z,83.60
2018-04-16T07:16:47.430Z,84.69
2018-04-16T07:17:47.561Z,83.89
2018-04-16T07:18:47.494Z,86.66
2018-04-16T07:19:47.403Z,87.18
2018-04-16T07:20:47.396Z,86.41
2018-04-16T07:21:47.394Z,86.51
2018-04-16T07:22:47.393Z,86.61
2018-04-16T07:23:47.384Z,87.95
2018-04-16T07:24:47.382Z,85.65
2018-04-16T07:25:47.377Z,86.90
2018-04-16T07:26:47.380Z,84.55
2018-04-16T07:27:47.370Z,86.47
2018-04-16T07:28:47.365Z,87.27
2018-04-16T07:29:47.364Z,89.19
2018-04-16T07:30:47.351Z,89.58
2018-04-16T07:31:47.349Z,88.71
2018-04-16T07:32:47.346Z,88.09
2018-04-16T07:33:47.342Z,86.85
2018-04-16T07:34:47.342Z,85.94
2018-04-16T07:35:47.342Z,85.99
2018-04-16T07:36:47.333Z,87.47
2018-04-16T07:37:47.327Z,84.88
2018-04-16T07:38:47.322Z,86.22
2018-04-16T07:39:47.320Z,86.04
2018-04-16T07:40:47.318Z,87.76
2018-04-16T07:41:47.339Z,85.65
2018-04-16T07:42:47.312Z,87.76
2018-04-16T07:43:47.362Z,86.80
2018-04-16T07:44:47.306Z,87.47
2018-04-16T07:45:47.301Z,85.79
2018-04-16T07:46:47.294Z,85.60
2018-04-16T07:47:47.294Z,87.80
2018-04-16T07:48:47.288Z,85.31
2018-04-16T07:49:47.282Z,87.51
2018-04-16T07:50:47.283Z,88.18
2018-04-16T07:51:47.277Z,89.90
2018-04-16T07:52:47.295Z,90.09
2018-04-16T07:53:47.269Z,87.13
2018-04-16T07:54:47.271Z,89.28
2018-04-16T07:55:47.267Z,88.32
2018-04-16T07:56:47.265Z,86.31
2018-04-16T07:57:47.268Z,85.35
2018-04-16T07:58:47.260Z,86.02
2018-04-16T07:59:47.253Z,90.23
2018-04-16T08:00:47.249Z,84.68
2018-04-16T08:01:47.245Z,85.93
2018-04-16T08:02:47.246Z,86.79
2018-04-16T08:03:47.245Z,87.65
2018-04-16T08:04:47.243Z,88.46
2018-04-16T08:05:47.239Z,86.54
2018-04-16T08:06:47.234Z,89.04
2018-04-16T08:07:47.238Z,88.02
2018-04-16T08:08:47.239Z,90.52
2018-04-16T08:09:47.234Z,90.14
2018-04-16T08:10:47.233Z,89.61
2018-04-16T08:11:47.235Z,86.82
2018-04-16T08:12:47.231Z,88.31
2018-04-16T08:13:47.236Z,88.69
2018-04-16T08:14:47.234Z,87.44
2018-04-16T08:15:47.236Z,89.60
2018-04-16T08:16:47.238Z,88.25
2018-04-16T08:17:47.279Z,86.91
2018-04-16T08:18:47.245Z,86.72
2018-04-16T08:19:47.234Z,88.73
2018-04-16T08:20:47.236Z,87.10
2018-04-16T08:21:47.238Z,87.87
2018-04-16T08:22:47.246Z,88.54
2018-04-16T08:23:47.241Z,87.62
2018-04-16T08:24:47.246Z,87.24
2018-04-16T08:25:47.242Z,87.92
2018-04-16T08:26:47.245Z,86.38
2018-04-16T08:27:47.248Z,85.51
2018-04-16T08:28:47.252Z,88.78
2018-04-16T08:29:47.257Z,86.66
2018-04-16T08:30:47.259Z,87.24
2018-04-16T08:31:47.257Z,87.82
2018-04-16T08:32:47.261Z,85.71
2018-04-16T08:33:47.260Z,88.24
2018-04-16T08:34:47.264Z,89.40
2018-04-16T08:35:47.265Z,87.57
2018-04-16T08:36:47.271Z,86.80
2018-04-16T08:37:47.273Z,84.11
2018-04-16T08:38:47.275Z,84.01
2018-04-16T08:39:47.278Z,85.17
2018-04-16T08:40:47.278Z,86.22
2018-04-16T08:41:47.281Z,87.81
2018-04-16T08:42:47.286Z,83.96
2018-04-16T08:43:47.294Z,87.23
2018-04-16T08:44:47.295Z,85.74
2018-04-16T08:45:47.297Z,85.16
2018-04-16T08:46:47.301Z,83.91
2018-04-16T08:47:47.302Z,84.97
2018-04-16T08:48:47.307Z,84.67
2018-04-16T08:49:47.314Z,84.33
2018-04-16T08:50:47.323Z,81.54
2018-04-16T08:51:47.326Z,85.39
2018-04-16T08:52:47.329Z,80.00
2018-04-16T08:53:47.331Z,80.81
2018-04-16T08:54:47.336Z,81.58
2018-04-16T08:55:47.341Z,77.34
2018-04-16T08:56:47.346Z,81.01
2018-04-16T08:57:47.350Z,80.71
2018-04-16T08:58:47.366Z,79.36
2018-04-16T08:59:47.363Z,74.30
2018-04-16T09:00:47.375Z,73.62
2018-04-16T09:01:47.370Z,76.03
2018-04-16T09:02:47.378Z,77.09
2018-04-16T09:03:47.381Z,78.73
2018-04-16T09:04:47.391Z,78.69
2018-04-16T09:05:47.396Z,79.11
2018-04-16T09:06:47.408Z,78.88
2018-04-16T09:07:47.407Z,77.67
2018-04-16T09:08:47.429Z,80.18
2018-04-16T09:09:47.417Z,79.11
2018-04-16T09:10:47.426Z,78.06
2018-04-16T09:11:47.430Z,75.74
2018-04-16T09:12:47.434Z,74.52
2018-04-16T09:13:47.441Z,74.05
2018-04-16T09:14:47.443Z,76.75
2018-04-16T09:15:47.452Z,78.67
2018-04-16T09:16:47.461Z,79.93
2018-04-16T09:17:47.464Z,78.77
2018-04-16T09:18:47.472Z,77.36
2018-04-16T09:19:47.477Z,77.26
2018-04-16T09:20:47.479Z,77.84
2018-04-16T09:21:47.483Z,76.24
2018-04-16T09:22:47.492Z,73.83
2018-04-16T09:23:47.499Z,69.87
2018-04-16T09:24:47.507Z,69.10
2018-04-16T09:25:47.512Z,72.58
2018-04-16T09:26:47.524Z,70.94
2018-04-16T09:27:47.525Z,73.25
2018-04-16T09:28:47.528Z,71.03
2018-04-16T09:29:47.534Z,72.19
2018-04-16T09:30:47.549Z,67.17
2018-04-16T09:31:47.555Z,66.11
2018-04-16T09:32:47.565Z,65.91
2018-04-16T09:33:47.565Z,72.44
2018-04-16T09:34:47.568Z,70.22
2018-04-16T09:35:47.574Z,71.09
2018-04-16T09:36:47.579Z,73.37
2018-04-16T09:37:47.591Z,72.41
2018-04-16T09:38:47.592Z,76.36
2018-04-16T09:39:47.597Z,73.85
2018-04-16T09:40:47.599Z,70.86
2018-04-16T09:41:47.603Z,66.33
2018-04-16T09:42:47.611Z,66.27
2018-04-16T09:43:47.618Z,65.30
2018-04-16T09:44:47.623Z,65.11
2018-04-16T09:45:47.625Z,64.69
2018-04-16T09:46:47.631Z,65.85
2018-04-16T09:47:47.638Z,68.26
2018-04-16T09:48:47.638Z,69.71
2018-04-16T09:49:47.644Z,70.48
2018-04-16T09:50:47.651Z,69.71
2018-04-16T09:51:47.657Z,73.57
2018-04-16T09:52:47.658Z,71.44
2018-04-16T09:53:47.665Z,71.64
2018-04-16T09:54:47.664Z,71.34
2018-04-16T09:55:47.669Z,69.80
2018-04-16T09:56:47.673Z,72.79
2018-04-16T09:57:47.679Z,70.48
2018-04-16T09:58:47.685Z,68.93
2018-04-16T09:59:47.692Z,67.40
2018-04-16T10:00:47.691Z,70.57
2018-04-16T10:01:47.690Z,68.26
2018-04-16T10:02:47.694Z,67.20
2018-04-16T10:03:47.703Z,69.80
2018-04-16T10:04:47.708Z,70.48
2018-04-16T10:05:47.710Z,67.88
2018-04-16T10:06:47.716Z,69.55
2018-04-16T10:07:47.722Z,67.49
2018-04-16T10:08:47.729Z,72.41
2018-04-16T10:09:47.766Z,70.42
2018-04-16T10:10:47.729Z,72.02
2018-04-16T10:11:47.737Z,70.42
2018-04-16T10:12:47.740Z,71.48
2018-04-16T10:13:47.746Z,71.96
2018-04-16T10:14:47.753Z,69.84
2018-04-16T10:15:47.752Z,68.68
2018-04-16T10:16:47.756Z,65.53
2018-04-16T10:17:47.765Z,64.47
2018-04-16T10:18:47.769Z,67.36
2018-04-16T10:19:47.775Z,64.89
2018-04-16T10:20:47.779Z,65.95
2018-04-16T10:21:47.781Z,66.85
2018-04-16T10:22:47.788Z,66.66
2018-04-16T10:23:47.798Z,67.17
2018-04-16T10:24:47.802Z,58.47
2018-04-16T10:25:47.808Z,67.27
2018-04-16T10:26:47.815Z,65.17
2018-04-16T10:27:47.821Z,63.82
2018-04-16T10:28:47.856Z,60.82
2018-04-16T10:29:47.834Z,63.63
2018-04-16T10:30:47.840Z,66.05
2018-04-16T10:31:47.852Z,64.98
2018-04-16T10:32:47.859Z,60.05
2018-04-16T10:33:47.867Z,56.95
2018-04-16T10:34:47.872Z,59.95
2018-04-16T10:35:47.875Z,63.73
2018-04-16T10:36:47.883Z,59.92
2018-04-16T10:37:47.889Z,61.08
2018-04-16T10:38:47.900Z,62.63
2018-04-16T10:39:47.921Z,62.02
2018-04-16T10:40:47.928Z,60.96
2018-04-16T10:41:47.913Z,58.51
2018-04-16T10:42:47.920Z,61.02
2018-04-16T10:43:47.927Z,63.50
2018-04-16T10:44:47.931Z,63.21
2018-04-16T10:45:47.939Z,65.43
2018-04-16T10:46:47.988Z,61.96
2018-04-16T10:47:47.955Z,64.76
2018-04-16T10:48:47.959Z,64.66
2018-04-16T10:49:47.959Z,64.89
2018-04-16T10:50:47.962Z,59.28
2018-04-16T10:51:47.969Z,61.80
2018-04-16T10:52:47.975Z,61.44
2018-04-16T10:53:47.975Z,63.85
2018-04-16T10:54:47.979Z,60.96
2018-04-16T10:55:47.984Z,61.15
2018-04-16T10:56:47.993Z,59.92
2018-04-16T10:57:48.017Z,58.76
2018-04-16T10:58:48.006Z,59.15
2018-04-16T10:59:48.007Z,61.95
2018-04-16T11:00:48.011Z,59.05
2018-04-16T11:01:48.016Z,59.92
2018-04-16T11:02:48.024Z,58.28
2018-04-16T11:03:48.031Z,58.09
2018-04-16T11:04:48.038Z,56.05
2018-04-16T11:05:48.043Z,56.73
2018-04-16T11:06:48.048Z,60.92
2018-04-16T11:07:48.058Z,56.37
2018-04-16T11:08:48.061Z,54.53
2018-04-16T11:09:48.061Z,56.18
2018-04-16T11:10:48.068Z,55.70
2018-04-16T11:11:48.082Z,55.70
2018-04-16T11:12:48.089Z,56.47
2018-04-16T11:13:48.091Z,56.86
2018-04-16T11:14:48.098Z,58.12
2018-04-16T11:15:48.101Z,53.77
2018-04-16T11:16:48.107Z,56.09
2018-04-16T11:17:48.113Z,56.47
2018-04-16T11:18:48.121Z,55.38
2018-04-16T11:19:48.127Z,57.31
2018-04-16T11:20:48.137Z,58.06
2018-04-16T11:21:48.139Z,56.41
2018-04-16T11:22:48.148Z,59.34
2018-04-16T11:23:48.155Z,58.47
2018-04-16T11:24:48.162Z,56.35
2018-04-16T11:25:48.166Z,54.32
2018-04-16T11:26:48.175Z,55.38
2018-04-16T11:27:48.180Z,55.45
2018-04-16T11:28:48.181Z,56.22
2018-04-16T11:29:48.186Z,57.67
2018-04-16T11:30:48.192Z,59.12
2018-04-16T11:31:48.201Z,59.70
2018-04-16T11:32:48.204Z,56.90
2018-04-16T11:33:48.249Z,57.29
2018-04-16T11:34:48.211Z,56.90
2018-04-16T11:35:48.214Z,58.25
2018-04-16T11:36:48.217Z,59.22
2018-04-16T11:37:48.224Z,58.35
2018-04-16T11:38:48.229Z,55.93
2018-04-16T11:39:48.238Z,54.87
2018-04-16T11:40:48.240Z,58.18
2018-04-16T11:41:48.250Z,56.45
2018-04-16T11:42:48.254Z,54.93
2018-04-16T11:43:48.258Z,53.47
2018-04-16T11:44:48.265Z,53.47
2018-04-16T11:45:48.274Z,51.15
2018-04-16T11:46:48.281Z,53.09
2018-04-16T11:47:48.288Z,52.48
2018-04-16T11:48:48.290Z,54.99
2018-04-16T11:49:48.296Z,54.22
2018-04-16T11:50:48.383Z,57.60
2018-04-16T11:51:48.319Z,52.39
2018-04-16T11:52:48.314Z,50.84
2018-04-16T11:53:48.318Z,50.55
2018-04-16T11:54:48.323Z,52.12
2018-04-16T11:55:48.342Z,53.57
2018-04-16T11:56:48.336Z,51.25
2018-04-16T11:57:48.344Z,49.80
2018-04-16T11:58:48.351Z,51.54
2018-04-16T11:59:48.375Z,51.93
2018-04-16T12:00:48.363Z,53.47
2018-04-16T12:01:48.368Z,52.41
2018-04-16T12:02:48.373Z,52.70
2018-04-16T12:03:48.377Z,55.41
2018-04-16T12:04:48.385Z,55.43
2018-04-16T12:05:48.396Z,53.99
2018-04-16T12:06:48.400Z,53.59
2018-04-16T12:07:48.406Z,56.79
2018-04-16T12:08:48.414Z,52.95
2018-04-16T12:09:48.415Z,52.17
2018-04-16T12:10:48.422Z,52.56
2018-04-16T12:11:48.431Z,51.40
2018-04-16T12:12:48.440Z,51.30
2018-04-16T12:13:48.446Z,52.58
2018-04-16T12:14:48.452Z,50.84
2018-04-16T12:15:48.497Z,53.45
2018-04-16T12:16:48.465Z,52.20
2018-04-16T12:17:48.473Z,53.65
2018-04-16T12:18:48.485Z,56.36
2018-04-16T12:19:48.493Z,53.07
2018-04-16T12:20:48.497Z,50.96
2018-04-16T12:21:48.506Z,52.42
2018-04-16T12:22:48.605Z,51.96
2018-04-16T12:23:48.528Z,48.27
2018-04-16T12:24:48.525Z,49.90
2018-04-16T12:25:48.536Z,51.16
2018-04-16T12:26:48.545Z,51.84
2018-04-16T12:27:48.602Z,53.94
2018-04-16T12:28:48.565Z,50.74
2018-04-16T12:29:48.604Z,53.26
2018-04-16T12:30:48.576Z,51.98
2018-04-16T12:31:48.583Z,49.75
2018-04-16T12:32:48.654Z,48.59
2018-04-16T12:33:48.600Z,48.30
2018-04-16T12:34:48.609Z,49.75
2018-04-16T12:35:48.624Z,50.43
2018-04-16T12:36:48.616Z,50.98
2018-04-16T12:37:48.624Z,52.34
2018-04-16T12:38:48.629Z,51.47
2018-04-16T12:39:48.635Z,50.02
2018-04-16T12:40:48.648Z,51.50
2018-04-16T12:41:48.651Z,49.82
2018-04-16T12:42:48.658Z,50.60
2018-04-16T12:43:48.689Z,50.79
2018-04-16T12:44:48.742Z,49.34
2018-04-16T12:45:48.673Z,49.90
2018-04-16T12:46:48.677Z,50.48
2018-04-16T12:47:48.688Z,49.22
2018-04-16T12:48:48.692Z,52.22
2018-04-16T12:49:48.698Z,50.65
2018-04-16T12:50:48.699Z,51.03
2018-04-16T12:51:48.707Z,53.74
2018-04-16T12:52:48.714Z,49.10
2018-04-16T12:53:48.718Z,49.07
2018-04-16T12:54:48.727Z,50.04
2018-04-16T12:55:48.730Z,50.81
2018-04-16T12:56:48.733Z,50.93
2018-04-16T12:57:48.748Z,52.77
2018-04-16T12:58:48.740Z,51.51
2018-04-16T12:59:48.747Z,50.35
2018-04-16T13:00:48.752Z,50.35
2018-04-16T13:01:48.755Z,51.32
2018-04-16T13:02:48.761Z,51.32
2018-04-16T13:03:48.765Z,51.03
2018-04-16T13:04:48.764Z,51.03
2018-04-16T13:05:48.773Z,51.42
2018-04-16T13:06:48.783Z,52.77
2018-04-16T13:07:48.792Z,52.48
2018-04-16T13:08:48.784Z,51.23
2018-04-16T13:09:48.795Z,55.87
2018-04-16T13:10:48.813Z,54.32
2018-04-16T13:11:48.796Z,55.51
2018-04-16T13:12:48.804Z,54.53
2018-04-16T13:13:48.804Z,54.63
2018-04-16T13:14:48.812Z,53.45